sensor_id;sensor_type;location;lat;lon;timestamp;pressure;altitude;pressure_sealevel;temperature;humidity
65760;BME280;52496;51.082;5.066;2023-06-10T00:00:57;101160.66;;;21.86;61.35
65760;BME280;52496;51.082;5.066;2023-06-10T00:03:27;101161.19;;;21.83;61.50
65760;BME280;52496;51.082;5.066;2023-06-10T00:05:58;101157.88;;;21.81;61.77
65760;BME280;52496;51.082;5.066;2023-06-10T00:08:28;101163.25;;;21.76;62.06
65760;BME280;52496;51.082;5.066;2023-06-10T00:11:01;101159.38;;;21.72;62.27
65760;BME280;52496;51.082;5.066;2023-06-10T00:13:32;101167.00;;;21.70;62.82
65760;BME280;52496;51.082;5.066;2023-06-10T00:16:02;101165.31;;;21.69;63.35
65760;BME280;52496;51.082;5.066;2023-06-10T00:18:33;101167.50;;;21.67;63.65
65760;BME280;52496;51.082;5.066;2023-06-10T00:21:07;101169.63;;;21.65;64.04
65760;BME280;52496;51.082;5.066;2023-06-10T00:23:37;101166.59;;;21.61;64.24
65760;BME280;52496;51.082;5.066;2023-06-10T00:26:08;101163.50;;;21.58;64.55
65760;BME280;52496;51.082;5.066;2023-06-10T00:28:38;101171.13;;;21.56;64.90
65760;BME280;52496;51.082;5.066;2023-06-10T00:31:09;101163.47;;;21.52;64.88
65760;BME280;52496;51.082;5.066;2023-06-10T00:33:39;101167.50;;;21.50;65.37
65760;BME280;52496;51.082;5.066;2023-06-10T00:36:10;101167.19;;;21.46;65.71
65760;BME280;52496;51.082;5.066;2023-06-10T00:38:40;101155.97;;;21.43;66.00
65760;BME280;52496;51.082;5.066;2023-06-10T00:41:11;101167.34;;;21.40;66.12
65760;BME280;52496;51.082;5.066;2023-06-10T00:43:41;101165.34;;;21.35;66.22
65760;BME280;52496;51.082;5.066;2023-06-10T00:46:12;101165.84;;;21.32;66.51
65760;BME280;52496;51.082;5.066;2023-06-10T00:48:44;101160.88;;;21.29;67.02
65760;BME280;52496;51.082;5.066;2023-06-10T00:51:16;101155.13;;;21.25;67.38
65760;BME280;52496;51.082;5.066;2023-06-10T00:53:47;101160.47;;;21.20;67.47
65760;BME280;52496;51.082;5.066;2023-06-10T00:56:17;101162.88;;;21.17;67.53
65760;BME280;52496;51.082;5.066;2023-06-10T00:58:48;101167.72;;;21.15;67.80
65760;BME280;52496;51.082;5.066;2023-06-10T01:01:18;101167.16;;;21.13;67.96
65760;BME280;52496;51.082;5.066;2023-06-10T01:03:50;101169.28;;;21.11;68.14
65760;BME280;52496;51.082;5.066;2023-06-10T01:12:19;101169.13;;;21.00;69.40
65760;BME280;52496;51.082;5.066;2023-06-10T01:14:49;101163.09;;;20.98;69.53
65760;BME280;52496;51.082;5.066;2023-06-10T01:17:21;101158.75;;;20.97;69.57
65760;BME280;52496;51.082;5.066;2023-06-10T01:19:56;101169.03;;;20.95;70.27
65760;BME280;52496;51.082;5.066;2023-06-10T01:22:27;101164.09;;;20.92;70.38
65760;BME280;52496;51.082;5.066;2023-06-10T01:24:58;101168.13;;;20.90;70.54
65760;BME280;52496;51.082;5.066;2023-06-10T01:27:33;101161.53;;;20.85;70.75
65760;BME280;52496;51.082;5.066;2023-06-10T01:30:14;101156.59;;;20.82;71.33
65760;BME280;52496;51.082;5.066;2023-06-10T01:32:51;101158.38;;;20.77;71.27
65760;BME280;52496;51.082;5.066;2023-06-10T01:35:24;101160.78;;;20.73;71.43
65760;BME280;52496;51.082;5.066;2023-06-10T01:37:57;101154.16;;;20.69;71.82
65760;BME280;52496;51.082;5.066;2023-06-10T01:40:29;101163.66;;;20.67;72.21
65760;BME280;52496;51.082;5.066;2023-06-10T01:43:00;101156.31;;;20.67;72.03
65760;BME280;52496;51.082;5.066;2023-06-10T01:45:30;101158.69;;;20.64;72.40
65760;BME280;52496;51.082;5.066;2023-06-10T01:48:01;101156.22;;;20.62;72.54
65760;BME280;52496;51.082;5.066;2023-06-10T01:50:31;101157.53;;;20.59;72.48
65760;BME280;52496;51.082;5.066;2023-06-10T01:53:03;101156.38;;;20.55;72.66
65760;BME280;52496;51.082;5.066;2023-06-10T01:55:33;101160.38;;;20.53;73.09
65760;BME280;52496;51.082;5.066;2023-06-10T01:58:04;101164.38;;;20.50;73.13
65760;BME280;52496;51.082;5.066;2023-06-10T02:00:34;101163.22;;;20.46;73.34
65760;BME280;52496;51.082;5.066;2023-06-10T02:03:05;101170.22;;;20.42;73.79
65760;BME280;52496;51.082;5.066;2023-06-10T02:05:35;101162.56;;;20.39;73.84
65760;BME280;52496;51.082;5.066;2023-06-10T02:08:06;101168.47;;;20.36;74.09
65760;BME280;52496;51.082;5.066;2023-06-10T02:10:36;101167.28;;;20.32;74.53
65760;BME280;52496;51.082;5.066;2023-06-10T02:13:07;101168.84;;;20.28;74.91
65760;BME280;52496;51.082;5.066;2023-06-10T02:15:37;101165.19;;;20.22;75.02
65760;BME280;52496;51.082;5.066;2023-06-10T02:18:08;101168.63;;;20.17;74.95
65760;BME280;52496;51.082;5.066;2023-06-10T02:20:38;101173.47;;;20.15;75.20
65760;BME280;52496;51.082;5.066;2023-06-10T02:23:09;101172.28;;;20.11;75.84
65760;BME280;52496;51.082;5.066;2023-06-10T02:25:39;101172.78;;;20.08;75.65
65760;BME280;52496;51.082;5.066;2023-06-10T02:28:10;101164.53;;;20.03;76.03
65760;BME280;52496;51.082;5.066;2023-06-10T02:30:41;101172.34;;;20.00;76.21
65760;BME280;52496;51.082;5.066;2023-06-10T02:33:11;101165.50;;;19.97;76.38
65760;BME280;52496;51.082;5.066;2023-06-10T02:35:42;101171.41;;;19.94;76.69
65760;BME280;52496;51.082;5.066;2023-06-10T02:38:12;101180.03;;;19.91;77.27
65760;BME280;52496;51.082;5.066;2023-06-10T02:40:42;101169.88;;;19.86;77.13
65760;BME280;52496;51.082;5.066;2023-06-10T02:43:13;101170.34;;;19.83;77.17
65760;BME280;52496;51.082;5.066;2023-06-10T02:45:43;101169.19;;;19.79;77.47
65760;BME280;52496;51.082;5.066;2023-06-10T02:48:14;101180.50;;;19.76;77.59
65760;BME280;52496;51.082;5.066;2023-06-10T02:50:44;101173.91;;;19.72;77.90
65760;BME280;52496;51.082;5.066;2023-06-10T02:53:15;101171.41;;;19.70;78.05
65760;BME280;52496;51.082;5.066;2023-06-10T02:55:46;101176.50;;;19.67;78.13
65760;BME280;52496;51.082;5.066;2023-06-10T02:58:16;101173.41;;;19.63;78.86
65760;BME280;52496;51.082;5.066;2023-06-10T03:00:47;101182.59;;;19.62;78.65
65760;BME280;52496;51.082;5.066;2023-06-10T03:03:18;101180.94;;;19.61;78.87
65760;BME280;52496;51.082;5.066;2023-06-10T03:05:48;101178.94;;;19.57;79.44
65760;BME280;52496;51.082;5.066;2023-06-10T03:08:19;101186.25;;;19.56;79.31
65760;BME280;52496;51.082;5.066;2023-06-10T03:10:49;101191.09;;;19.54;79.45
65760;BME280;52496;51.082;5.066;2023-06-10T03:13:20;101184.25;;;19.52;79.17
65760;BME280;52496;51.082;5.066;2023-06-10T03:15:51;101191.78;;;19.49;79.38
65760;BME280;52496;51.082;5.066;2023-06-10T03:18:26;101193.69;;;19.49;79.48
65760;BME280;52496;51.082;5.066;2023-06-10T03:20:57;101187.66;;;19.47;79.75
65760;BME280;52496;51.082;5.066;2023-06-10T03:23:27;101194.75;;;19.48;80.13
65760;BME280;52496;51.082;5.066;2023-06-10T03:25:58;101201.81;;;19.49;79.51
65760;BME280;52496;51.082;5.066;2023-06-10T03:28:29;101202.28;;;19.46;79.75
65760;BME280;52496;51.082;5.066;2023-06-10T03:30:59;101207.94;;;19.44;80.14
65760;BME280;52496;51.082;5.066;2023-06-10T03:33:30;101206.53;;;19.42;79.97
65760;BME280;52496;51.082;5.066;2023-06-10T03:36:01;101204.06;;;19.40;80.34
65760;BME280;52496;51.082;5.066;2023-06-10T03:38:32;101202.63;;;19.38;80.22
65760;BME280;52496;51.082;5.066;2023-06-10T03:41:03;101212.91;;;19.36;80.95
65760;BME280;52496;51.082;5.066;2023-06-10T03:43:33;101207.94;;;19.33;80.44
65760;BME280;52496;51.082;5.066;2023-06-10T03:46:04;101211.69;;;19.32;80.72
65760;BME280;52496;51.082;5.066;2023-06-10T03:48:34;101213.84;;;19.30;81.29
65760;BME280;52496;51.082;5.066;2023-06-10T03:51:04;101212.63;;;19.25;81.57
65760;BME280;52496;51.082;5.066;2023-06-10T03:53:35;101212.63;;;19.25;81.48
65760;BME280;52496;51.082;5.066;2023-06-10T03:56:06;101204.75;;;19.24;81.75
65760;BME280;52496;51.082;5.066;2023-06-10T03:58:36;101212.06;;;19.23;81.61
65760;BME280;52496;51.082;5.066;2023-06-10T04:01:06;101209.34;;;19.23;81.61
65760;BME280;52496;51.082;5.066;2023-06-10T04:03:37;101209.34;;;19.23;81.68
65760;BME280;52496;51.082;5.066;2023-06-10T04:06:09;101214.78;;;19.23;81.68
65760;BME280;52496;51.082;5.066;2023-06-10T04:08:40;101213.44;;;19.26;81.75
65760;BME280;52496;51.082;5.066;2023-06-10T04:11:10;101221.59;;;19.26;81.67
65760;BME280;52496;51.082;5.066;2023-06-10T04:13:41;101213.00;;;19.29;81.56
65760;BME280;52496;51.082;5.066;2023-06-10T04:16:11;101215.47;;;19.31;81.46
65760;BME280;52496;51.082;5.066;2023-06-10T04:18:41;101213.38;;;19.33;81.87
65760;BME280;52496;51.082;5.066;2023-06-10T04:21:12;101221.50;;;19.33;81.50
65760;BME280;52496;51.082;5.066;2023-06-10T04:23:42;101230.47;;;19.33;81.47
65760;BME280;52496;51.082;5.066;2023-06-10T04:26:13;101230.22;;;19.35;81.27
65760;BME280;52496;51.082;5.066;2023-06-10T04:28:44;101224.56;;;19.36;81.74
65760;BME280;52496;51.082;5.066;2023-06-10T04:31:14;101236.84;;;19.39;81.34
65760;BME280;52496;51.082;5.066;2023-06-10T04:33:45;101242.84;;;19.41;81.45
65760;BME280;52496;51.082;5.066;2023-06-10T04:36:15;101245.91;;;19.44;82.04
65760;BME280;52496;51.082;5.066;2023-06-10T04:38:46;101244.03;;;19.45;81.72
65760;BME280;52496;51.082;5.066;2023-06-10T04:41:16;101235.44;;;19.48;82.12
65760;BME280;52496;51.082;5.066;2023-06-10T04:43:47;101241.44;;;19.50;81.51
65760;BME280;52496;51.082;5.066;2023-06-10T04:46:17;101244.75;;;19.52;82.02
65760;BME280;52496;51.082;5.066;2023-06-10T04:48:48;101242.19;;;19.57;81.07
65760;BME280;52496;51.082;5.066;2023-06-10T04:51:18;101240.81;;;19.66;80.98
65760;BME280;52496;51.082;5.066;2023-06-10T04:53:49;101239.59;;;19.74;81.21
65760;BME280;52496;51.082;5.066;2023-06-10T04:56:19;101240.09;;;19.83;80.58
65760;BME280;52496;51.082;5.066;2023-06-10T04:58:50;101241.97;;;19.94;79.97
65760;BME280;52496;51.082;5.066;2023-06-10T05:01:20;101236.75;;;20.04;79.96
65760;BME280;52496;51.082;5.066;2023-06-10T05:03:51;101234.25;;;20.14;78.88
65760;BME280;52496;51.082;5.066;2023-06-10T05:06:22;101236.63;;;20.23;78.34
65760;BME280;52496;51.082;5.066;2023-06-10T05:08:52;101236.25;;;20.31;78.16
65760;BME280;52496;51.082;5.066;2023-06-10T05:11:23;101234.81;;;20.40;77.43
65760;BME280;52496;51.082;5.066;2023-06-10T05:13:53;101240.09;;;20.47;77.52
65760;BME280;52496;51.082;5.066;2023-06-10T05:16:23;101237.88;;;20.55;76.88
65760;BME280;52496;51.082;5.066;2023-06-10T05:18:54;101242.69;;;20.65;76.66
65760;BME280;52496;51.082;5.066;2023-06-10T05:21:24;101242.53;;;20.72;76.06
65760;BME280;52496;51.082;5.066;2023-06-10T05:23:55;101244.88;;;20.80;76.22
65760;BME280;52496;51.082;5.066;2023-06-10T05:26:25;101254.28;;;20.89;76.27
65760;BME280;52496;51.082;5.066;2023-06-10T05:28:56;101247.28;;;20.93;74.90
65760;BME280;52496;51.082;5.066;2023-06-10T05:31:26;101252.59;;;21.00;74.79
65760;BME280;52496;51.082;5.066;2023-06-10T05:33:57;101253.25;;;21.07;75.17
65760;BME280;52496;51.082;5.066;2023-06-10T05:36:28;101253.09;;;21.14;74.79
65760;BME280;52496;51.082;5.066;2023-06-10T05:38:58;101255.44;;;21.22;75.18
65760;BME280;52496;51.082;5.066;2023-06-10T05:41:29;101254.19;;;21.29;73.64
65760;BME280;52496;51.082;5.066;2023-06-10T05:43:59;101253.00;;;21.37;73.00
65760;BME280;52496;51.082;5.066;2023-06-10T05:46:30;101260.75;;;21.45;72.78
65760;BME280;52496;51.082;5.066;2023-06-10T05:49:00;101255.16;;;21.52;72.45
65760;BME280;52496;51.082;5.066;2023-06-10T05:51:31;101265.97;;;21.64;71.83
65760;BME280;52496;51.082;5.066;2023-06-10T05:54:04;101260.34;;;21.70;72.31
65760;BME280;52496;51.082;5.066;2023-06-10T05:56:34;101268.44;;;21.82;71.50
65760;BME280;52496;51.082;5.066;2023-06-10T05:59:05;101259.31;;;21.93;71.92
65760;BME280;52496;51.082;5.066;2023-06-10T06:01:35;101261.94;;;22.05;71.93
65760;BME280;52496;51.082;5.066;2023-06-10T06:04:06;101265.06;;;22.14;70.21
65760;BME280;52496;51.082;5.066;2023-06-10T06:06:38;101263.34;;;22.25;70.30
65760;BME280;52496;51.082;5.066;2023-06-10T06:09:13;101262.38;;;22.36;70.61
65760;BME280;52496;51.082;5.066;2023-06-10T06:11:43;101254.09;;;22.48;69.76
65760;BME280;52496;51.082;5.066;2023-06-10T06:14:14;101259.16;;;22.61;69.78
65760;BME280;52496;51.082;5.066;2023-06-10T06:16:45;101263.41;;;22.74;69.52
65760;BME280;52496;51.082;5.066;2023-06-10T06:19:15;101261.59;;;22.84;67.54
65760;BME280;52496;51.082;5.066;2023-06-10T06:21:46;101267.75;;;22.97;68.48
65760;BME280;52496;51.082;5.066;2023-06-10T06:24:17;101252.63;;;23.11;66.31
65760;BME280;52496;51.082;5.066;2023-06-10T06:26:48;101259.34;;;23.25;66.08
65760;BME280;52496;51.082;5.066;2023-06-10T06:29:19;101266.50;;;23.36;65.86
65760;BME280;52496;51.082;5.066;2023-06-10T06:31:49;101263.88;;;23.47;65.00
65760;BME280;52496;51.082;5.066;2023-06-10T06:34:20;101264.00;;;23.62;64.13
65760;BME280;52496;51.082;5.066;2023-06-10T06:36:50;101264.09;;;23.72;63.86
65760;BME280;52496;51.082;5.066;2023-06-10T06:39:21;101267.75;;;23.88;62.84
65760;BME280;52496;51.082;5.066;2023-06-10T06:41:52;101255.84;;;24.04;62.99
65760;BME280;52496;51.082;5.066;2023-06-10T06:44:22;101260.84;;;24.18;62.48
65760;BME280;52496;51.082;5.066;2023-06-10T06:46:53;101261.72;;;24.34;61.87
65760;BME280;52496;51.082;5.066;2023-06-10T06:49:23;101265.13;;;24.51;60.50
65760;BME280;52496;51.082;5.066;2023-06-10T06:51:54;101264.06;;;24.67;60.10
65760;BME280;52496;51.082;5.066;2023-06-10T06:54:24;101269.06;;;24.81;57.92
65760;BME280;52496;51.082;5.066;2023-06-10T06:56:55;101272.38;;;24.93;58.79
65760;BME280;52496;51.082;5.066;2023-06-10T06:59:25;101276.50;;;25.11;56.97
65760;BME280;52496;51.082;5.066;2023-06-10T07:01:56;101270.78;;;25.28;55.40
65760;BME280;52496;51.082;5.066;2023-06-10T07:04:26;101275.44;;;25.37;55.57
65760;BME280;52496;51.082;5.066;2023-06-10T07:06:57;101285.59;;;25.52;55.45
65760;BME280;52496;51.082;5.066;2023-06-10T07:09:27;101284.50;;;25.63;53.92
65760;BME280;52496;51.082;5.066;2023-06-10T07:11:58;101287.22;;;25.74;54.52
65760;BME280;52496;51.082;5.066;2023-06-10T07:14:28;101279.56;;;25.91;54.31
65760;BME280;52496;51.082;5.066;2023-06-10T07:16:59;101282.53;;;26.05;52.91
65760;BME280;52496;51.082;5.066;2023-06-10T07:19:30;101281.41;;;26.16;52.83
65760;BME280;52496;51.082;5.066;2023-06-10T07:22:00;101283.53;;;26.40;53.53
65760;BME280;52496;51.082;5.066;2023-06-10T07:24:30;101292.50;;;26.66;53.15
65760;BME280;52496;51.082;5.066;2023-06-10T07:27:01;101298.44;;;26.88;51.04
65760;BME280;52496;51.082;5.066;2023-06-10T07:29:32;101294.22;;;27.06;51.35
65760;BME280;52496;51.082;5.066;2023-06-10T07:32:04;101291.69;;;27.20;51.77
65760;BME280;52496;51.082;5.066;2023-06-10T07:34:34;101295.19;;;27.31;50.10
65760;BME280;52496;51.082;5.066;2023-06-10T07:37:05;101298.59;;;27.52;50.81
65760;BME280;52496;51.082;5.066;2023-06-10T07:39:35;101297.66;;;27.66;49.36
65760;BME280;52496;51.082;5.066;2023-06-10T07:42:06;101283.50;;;27.83;48.18
65760;BME280;52496;51.082;5.066;2023-06-10T07:44:37;101298.81;;;27.89;46.43
65760;BME280;52496;51.082;5.066;2023-06-10T07:47:08;101297.53;;;28.06;48.20
65760;BME280;52496;51.082;5.066;2023-06-10T07:49:38;101295.81;;;28.15;47.53
65760;BME280;52496;51.082;5.066;2023-06-10T07:52:10;101298.31;;;28.35;47.40
65760;BME280;52496;51.082;5.066;2023-06-10T07:54:40;101289.41;;;28.49;46.92
65760;BME280;52496;51.082;5.066;2023-06-10T07:57:11;101290.41;;;28.58;46.51
65760;BME280;52496;51.082;5.066;2023-06-10T07:59:41;101295.22;;;28.66;46.03
65760;BME280;52496;51.082;5.066;2023-06-10T08:02:14;101294.34;;;28.71;45.26
65760;BME280;52496;51.082;5.066;2023-06-10T08:04:45;101289.44;;;28.87;46.39
65760;BME280;52496;51.082;5.066;2023-06-10T08:07:15;101291.41;;;29.05;45.14
65760;BME280;52496;51.082;5.066;2023-06-10T08:09:46;101287.81;;;29.23;44.05
65760;BME280;52496;51.082;5.066;2023-06-10T08:12:17;101285.34;;;29.41;44.55
65760;BME280;52496;51.082;5.066;2023-06-10T08:14:47;101282.50;;;29.65;44.40
65760;BME280;52496;51.082;5.066;2023-06-10T08:17:18;101287.63;;;29.71;42.01
65760;BME280;52496;51.082;5.066;2023-06-10T08:19:48;101280.50;;;29.84;42.97
65760;BME280;52496;51.082;5.066;2023-06-10T08:22:19;101288.59;;;30.08;42.36
65760;BME280;52496;51.082;5.066;2023-06-10T08:24:49;101291.78;;;30.29;41.67
65760;BME280;52496;51.082;5.066;2023-06-10T08:27:20;101287.78;;;30.49;41.51
65760;BME280;52496;51.082;5.066;2023-06-10T08:29:50;101299.13;;;30.61;41.35
65760;BME280;52496;51.082;5.066;2023-06-10T08:32:21;101295.44;;;30.66;39.16
65760;BME280;52496;51.082;5.066;2023-06-10T08:34:51;101299.72;;;30.72;41.89
65760;BME280;52496;51.082;5.066;2023-06-10T08:37:22;101300.31;;;30.97;39.78
65760;BME280;52496;51.082;5.066;2023-06-10T08:39:52;101296.41;;;30.98;39.70
65760;BME280;52496;51.082;5.066;2023-06-10T08:42:28;101301.59;;;31.13;39.57
65760;BME280;52496;51.082;5.066;2023-06-10T08:45:01;101299.84;;;31.17;40.00
65760;BME280;52496;51.082;5.066;2023-06-10T08:47:33;101298.59;;;31.23;38.56
65760;BME280;52496;51.082;5.066;2023-06-10T08:50:08;101298.56;;;31.37;38.61
65760;BME280;52496;51.082;5.066;2023-06-10T08:52:42;101296.94;;;31.36;38.56
65760;BME280;52496;51.082;5.066;2023-06-10T08:55:38;101299.13;;;31.48;38.27
65760;BME280;52496;51.082;5.066;2023-06-10T08:58:08;101296.91;;;31.59;38.44
65760;BME280;52496;51.082;5.066;2023-06-10T09:00:40;101301.56;;;31.72;35.91
65760;BME280;52496;51.082;5.066;2023-06-10T09:03:11;101297.88;;;31.85;37.73
65760;BME280;52496;51.082;5.066;2023-06-10T09:05:42;101298.72;;;32.17;36.38
65760;BME280;52496;51.082;5.066;2023-06-10T09:08:15;101295.69;;;32.36;35.13
65760;BME280;52496;51.082;5.066;2023-06-10T09:10:46;101287.78;;;32.52;35.57
65760;BME280;52496;51.082;5.066;2023-06-10T09:13:17;101288.41;;;32.49;34.11
65760;BME280;52496;51.082;5.066;2023-06-10T09:15:49;101294.28;;;32.56;35.20
65760;BME280;52496;51.082;5.066;2023-06-10T09:18:22;101297.88;;;32.65;35.42
65760;BME280;52496;51.082;5.066;2023-06-10T09:20:53;101287.63;;;32.65;34.54
65760;BME280;52496;51.082;5.066;2023-06-10T09:23:24;101292.88;;;32.84;33.86
65760;BME280;52496;51.082;5.066;2023-06-10T09:25:57;101289.00;;;33.03;33.99
65760;BME280;52496;51.082;5.066;2023-06-10T09:28:30;101290.28;;;33.23;33.57
65760;BME280;52496;51.082;5.066;2023-06-10T09:31:05;101293.69;;;33.46;33.58
65760;BME280;52496;51.082;5.066;2023-06-10T09:33:39;101274.91;;;33.69;33.37
65760;BME280;52496;51.082;5.066;2023-06-10T09:36:09;101282.25;;;33.73;31.63
65760;BME280;52496;51.082;5.066;2023-06-10T09:38:40;101277.72;;;33.60;31.90
65760;BME280;52496;51.082;5.066;2023-06-10T09:41:11;101273.50;;;33.54;32.31
65760;BME280;52496;51.082;5.066;2023-06-10T09:43:46;101278.38;;;33.57;32.10
65760;BME280;52496;51.082;5.066;2023-06-10T09:46:18;101282.75;;;33.67;32.13
65760;BME280;52496;51.082;5.066;2023-06-10T09:48:48;101286.34;;;33.67;31.69
65760;BME280;52496;51.082;5.066;2023-06-10T09:51:19;101274.91;;;33.69;32.55
65760;BME280;52496;51.082;5.066;2023-06-10T09:53:53;101293.28;;;33.91;30.88
65760;BME280;52496;51.082;5.066;2023-06-10T09:56:33;101289.66;;;33.99;30.50
65760;BME280;52496;51.082;5.066;2023-06-10T09:59:04;101289.31;;;34.09;31.16
65760;BME280;52496;51.082;5.066;2023-06-10T10:01:36;101279.75;;;34.28;29.62
65760;BME280;52496;51.082;5.066;2023-06-10T10:04:07;101281.06;;;34.51;29.72
65760;BME280;52496;51.082;5.066;2023-06-10T10:06:38;101277.81;;;34.58;28.94
65760;BME280;52496;51.082;5.066;2023-06-10T10:09:09;101282.78;;;34.43;28.46
65760;BME280;52496;51.082;5.066;2023-06-10T10:11:40;101288.13;;;34.48;29.19
65760;BME280;52496;51.082;5.066;2023-06-10T10:14:13;101293.09;;;34.73;28.71
65760;BME280;52496;51.082;5.066;2023-06-10T10:16:47;101286.91;;;34.88;29.01
65760;BME280;52496;51.082;5.066;2023-06-10T10:19:48;101289.91;;;35.04;28.18
65760;BME280;52496;51.082;5.066;2023-06-10T10:22:25;101280.25;;;35.01;28.60
65760;BME280;52496;51.082;5.066;2023-06-10T10:24:59;101273.16;;;35.12;27.51
65760;BME280;52496;51.082;5.066;2023-06-10T10:27:38;101267.94;;;35.11;28.17
65760;BME280;52496;51.082;5.066;2023-06-10T10:30:11;101271.28;;;35.04;27.66
65760;BME280;52496;51.082;5.066;2023-06-10T10:35:30;101270.09;;;35.05;28.63
65760;BME280;52496;51.082;5.066;2023-06-10T10:38:02;101280.00;;;35.15;28.02
65760;BME280;52496;51.082;5.066;2023-06-10T10:40:33;101280.16;;;35.19;26.45
65760;BME280;52496;51.082;5.066;2023-06-10T10:43:04;101277.31;;;35.06;26.65
65760;BME280;52496;51.082;5.066;2023-06-10T10:45:36;101276.53;;;35.18;27.17
65760;BME280;52496;51.082;5.066;2023-06-10T10:48:09;101279.91;;;35.24;25.67
65760;BME280;52496;51.082;5.066;2023-06-10T10:50:42;101285.94;;;35.26;26.08
65760;BME280;52496;51.082;5.066;2023-06-10T10:53:19;101283.13;;;35.13;24.38
65760;BME280;52496;51.082;5.066;2023-06-10T10:56:14;101276.47;;;35.06;25.96
65760;BME280;52496;51.082;5.066;2023-06-10T10:59:05;101274.97;;;35.08;25.47
65760;BME280;52496;51.082;5.066;2023-06-10T11:01:43;101278.94;;;35.07;25.92
65760;BME280;52496;51.082;5.066;2023-06-10T11:04:17;101268.84;;;35.36;26.20
65760;BME280;52496;51.082;5.066;2023-06-10T11:06:55;101272.97;;;35.30;25.70
65760;BME280;52496;51.082;5.066;2023-06-10T11:09:36;101265.81;;;35.29;26.40
65760;BME280;52496;51.082;5.066;2023-06-10T11:12:07;101265.84;;;35.41;24.32
65760;BME280;52496;51.082;5.066;2023-06-10T11:14:54;101268.19;;;35.51;25.00
65760;BME280;52496;51.082;5.066;2023-06-10T11:17:25;101265.59;;;35.67;24.56
65760;BME280;52496;51.082;5.066;2023-06-10T11:19:58;101257.72;;;35.81;24.19
65760;BME280;52496;51.082;5.066;2023-06-10T11:22:29;101252.16;;;35.81;23.90
65760;BME280;52496;51.082;5.066;2023-06-10T11:24:59;101254.94;;;35.94;25.29
65760;BME280;52496;51.082;5.066;2023-06-10T11:27:37;101261.56;;;36.01;24.00
65760;BME280;52496;51.082;5.066;2023-06-10T11:30:21;101254.41;;;36.25;25.56
65760;BME280;52496;51.082;5.066;2023-06-10T11:32:55;101248.56;;;36.55;24.51
65760;BME280;52496;51.082;5.066;2023-06-10T11:35:27;101245.09;;;36.58;23.58
65760;BME280;52496;51.082;5.066;2023-06-10T11:37:58;101241.16;;;36.59;23.04
65760;BME280;52496;51.082;5.066;2023-06-10T11:40:29;101245.34;;;36.28;23.20
65760;BME280;52496;51.082;5.066;2023-06-10T11:43:01;101244.88;;;36.01;23.66
65760;BME280;52496;51.082;5.066;2023-06-10T11:45:32;101240.81;;;35.99;24.23
65760;BME280;52496;51.082;5.066;2023-06-10T11:48:03;101231.69;;;36.11;23.74
65760;BME280;52496;51.082;5.066;2023-06-10T11:50:34;101227.72;;;36.12;24.08
65760;BME280;52496;51.082;5.066;2023-06-10T11:53:05;101239.31;;;36.01;23.01
65760;BME280;52496;51.082;5.066;2023-06-10T11:55:46;101245.31;;;35.79;24.19
65760;BME280;52496;51.082;5.066;2023-06-10T11:58:19;101234.66;;;35.81;24.31
65760;BME280;52496;51.082;5.066;2023-06-10T12:00:53;101235.56;;;35.97;23.85
65760;BME280;52496;51.082;5.066;2023-06-10T12:03:24;101228.16;;;36.01;23.84
65760;BME280;52496;51.082;5.066;2023-06-10T12:06:00;101233.53;;;36.19;23.59
65760;BME280;52496;51.082;5.066;2023-06-10T12:08:32;101224.94;;;36.12;23.29
65760;BME280;52496;51.082;5.066;2023-06-10T12:11:02;101228.59;;;35.79;24.52
65760;BME280;52496;51.082;5.066;2023-06-10T12:13:33;101223.19;;;35.95;24.09
65760;BME280;52496;51.082;5.066;2023-06-10T12:16:09;101231.47;;;36.03;24.74
65760;BME280;52496;51.082;5.066;2023-06-10T12:18:40;101222.13;;;35.99;23.32
65760;BME280;52496;51.082;5.066;2023-06-10T12:21:18;101224.03;;;36.08;23.54
65760;BME280;52496;51.082;5.066;2023-06-10T12:24:06;101215.78;;;36.11;23.41
65760;BME280;52496;51.082;5.066;2023-06-10T12:26:40;101232.00;;;36.21;22.89
65760;BME280;52496;51.082;5.066;2023-06-10T12:29:19;101224.03;;;36.08;22.92
65760;BME280;52496;51.082;5.066;2023-06-10T12:31:55;101226.19;;;35.77;23.10
65760;BME280;52496;51.082;5.066;2023-06-10T12:34:36;101222.06;;;35.50;24.34
65760;BME280;52496;51.082;5.066;2023-06-10T12:37:12;101211.09;;;35.78;25.07
65760;BME280;52496;51.082;5.066;2023-06-10T12:39:51;101216.47;;;36.20;24.11
65760;BME280;52496;51.082;5.066;2023-06-10T12:42:24;101225.47;;;36.42;23.35
65760;BME280;52496;51.082;5.066;2023-06-10T12:44:55;101225.16;;;36.31;22.58
65760;BME280;52496;51.082;5.066;2023-06-10T12:47:34;101222.50;;;36.22;23.57
65760;BME280;52496;51.082;5.066;2023-06-10T12:50:06;101216.09;;;35.85;22.19
65760;BME280;52496;51.082;5.066;2023-06-10T12:52:37;101214.00;;;35.94;23.05
65760;BME280;52496;51.082;5.066;2023-06-10T12:55:08;101208.66;;;36.38;23.72
65760;BME280;52496;51.082;5.066;2023-06-10T12:57:48;101206.41;;;36.68;24.19
65760;BME280;52496;51.082;5.066;2023-06-10T13:00:18;101208.28;;;36.92;23.74
65760;BME280;52496;51.082;5.066;2023-06-10T13:02:50;101199.47;;;36.90;22.76
65760;BME280;52496;51.082;5.066;2023-06-10T13:05:21;101197.44;;;36.75;23.12
65760;BME280;52496;51.082;5.066;2023-06-10T13:07:52;101210.47;;;36.71;23.62
65760;BME280;52496;51.082;5.066;2023-06-10T13:10:22;101203.34;;;36.21;23.12
65760;BME280;52496;51.082;5.066;2023-06-10T13:12:53;101195.47;;;36.23;23.84
65760;BME280;52496;51.082;5.066;2023-06-10T13:15:27;101199.25;;;36.43;22.92
65760;BME280;52496;51.082;5.066;2023-06-10T13:17:57;101194.94;;;36.58;22.91
65760;BME280;52496;51.082;5.066;2023-06-10T13:20:28;101191.16;;;36.78;23.56
65760;BME280;52496;51.082;5.066;2023-06-10T13:22:59;101189.06;;;36.75;21.85